Wegatchie, New York
Current Conditions -  °F | °C
As of 4:58 AM on Saturday 22 Nov 2014 (Local Time) from KGTB Reporting Station
Overcast Overcast  
Wind Chill: 12°   Ceiling: 2200
Heat Index: 24°   Visibility: 10mi
Dew Point: 17°   Wind: 14mph
Humidity: 73%   Direction: 220°SW
Pressure: 30.26"   Gusts: NA
Location:  44.2513°N, 75.6074°W
Report Text: KGTB 220958Z AUTO 22012KT 10SM OVC022 M04/M08 A3026 RMK AO2 SLP259 T10421083
Loading
Personal Weather Stations






























Interactive Weather Map New forecast layout! Learn more

10-Day Weather Forecast

Advertisements
Track Severe Weather on mobile